Time;durP1;ratioP1;P1;durP2;ratioP2;P2;SDS_P1;SDS_P2;PMS_P1;PMS_P2;Temp;Humidity;BMP_temperature;BMP_pressure;BME280_temperature;BME280_humidity;BME280_pressure;Samples;Min_cycle;Max_cycle;Signal;HPM_P1;HPM_P2
2021/12/16 00:01:41;;;;;;;25.88;7.65;;;8.70;99.90;;;;;;5140516;27;20451;-64
2021/12/16 00:08:18;;;;;;;22.40;7.05;;;8.70;99.90;;;;;;5130919;27;20096;-64
2021/12/16 00:10:58;;;;;;;21.85;8.02;;;8.80;99.90;;;;;;5143159;27;20046;-64
2021/12/16 00:32:41;;;;;;;22.58;7.13;;;8.70;99.90;;;;;;5130869;27;20113;-64
2021/12/16 00:35:07;;;;;;;21.42;6.18;;;8.70;99.90;;;;;;5124242;27;20490;-64
2021/12/16 00:37:34;;;;;;;19.35;5.75;;;8.70;99.90;;;;;;5138468;27;20054;-64
2021/12/16 00:39:59;;;;;;;17.30;5.50;;;8.70;99.90;;;;;;5135687;27;20043;-64
2021/12/16 00:42:38;;;;;;;23.23;6.53;;;8.60;99.90;;;;;;5132016;27;20042;-64
2021/12/16 00:47:45;;;;;;;21.98;6.10;;;8.60;99.90;;;;;;5125195;27;20759;-64
2021/12/16 00:58:07;;;;;;;18.45;6.15;;;8.50;99.90;;;;;;5151731;27;20051;-64
2021/12/16 01:00:34;;;;;;;19.33;5.47;;;8.40;99.90;;;;;;5141923;27;20524;-64
2021/12/16 01:03:12;;;;;;;13.38;4.00;;;8.30;99.90;;;;;;5132816;27;20089;-64
2021/12/16 01:38:50;;;;;;;20.15;5.50;;;8.40;99.90;;;;;;5129830;27;20055;-64
2021/12/16 01:41:46;;;;;;;20.58;6.15;;;8.40;99.90;;;;;;5141751;27;20103;-64
2021/12/16 01:57:31;;;;;;;14.88;4.75;;;8.40;99.90;;;;;;5125492;27;20043;-64
2021/12/16 02:00:04;;;;;;;18.65;3.67;;;8.50;99.90;;;;;;5127924;27;20043;-64
2021/12/16 02:02:45;;;;;;;22.23;5.22;;;8.40;99.90;;;;;;5129006;27;20044;-64
2021/12/16 02:10:41;;;;;;;16.13;4.30;;;8.40;99.90;;;;;;5142328;27;20046;-64
2021/12/16 02:32:47;;;;;;;15.20;4.78;;;7.70;99.90;;;;;;5107865;27;20133;-64
2021/12/16 02:35:29;;;;;;;11.32;4.45;;;7.70;99.90;;;;;;5128142;27;20583;-64
2021/12/16 02:37:55;;;;;;;23.95;5.38;;;7.80;99.90;;;;;;5134327;27;20050;-63
2021/12/16 02:40:22;;;;;;;6.50;4.00;;;7.70;99.90;;;;;;5121698;27;20081;-64
2021/12/16 02:48:36;;;;;;;10.40;4.63;;;7.60;99.90;;;;;;5072367;28;20071;-64
2021/12/16 02:51:13;;;;;;;14.98;4.15;;;7.60;99.90;;;;;;5123859;27;20051;-63
2021/12/16 02:53:45;;;;;;;14.77;4.38;;;7.60;99.90;;;;;;5130872;27;20047;-64
2021/12/16 02:56:11;;;;;;;14.00;4.43;;;7.40;99.90;;;;;;5147751;27;20478;-63
2021/12/16 02:58:39;;;;;;;19.48;4.10;;;7.30;99.90;;;;;;5137655;27;20039;-64
2021/12/16 03:01:19;;;;;;;11.07;4.65;;;7.30;99.90;;;;;;5144259;27;20058;-64
2021/12/16 03:03:45;;;;;;;15.48;4.65;;;7.30;99.90;;;;;;5130179;27;20046;-64
2021/12/16 03:06:12;;;;;;;8.35;3.80;;;7.30;99.90;;;;;;5137769;27;20862;-64
2021/12/16 03:08:39;;;;;;;14.80;4.80;;;7.30;99.90;;;;;;5106915;27;20047;-64
2021/12/16 03:13:57;;;;;;;14.82;3.85;;;7.30;99.90;;;;;;5145320;27;20485;-64
2021/12/16 03:17:15;;;;;;;18.20;4.40;;;7.30;99.90;;;;;;5111700;27;20081;-64
2021/12/16 03:19:31;;;;;;;16.48;5.05;;;7.20;99.90;;;;;;5112337;27;20133;-64
2021/12/16 03:22:00;;;;;;;12.38;4.22;;;7.20;99.90;;;;;;5140155;27;20047;-64
2021/12/16 03:25:00;;;;;;;19.77;4.70;;;7.30;99.90;;;;;;5128547;27;20847;-63
2021/12/16 03:27:43;;;;;;;15.20;4.85;;;7.20;99.90;;;;;;5134419;27;20073;-64
2021/12/16 03:35:30;;;;;;;10.85;3.72;;;7.10;99.90;;;;;;5116137;27;20043;-64
2021/12/16 03:38:04;;;;;;;20.38;5.80;;;7.00;99.90;;;;;;5128705;27;20051;-64
2021/12/16 03:40:31;;;;;;;13.18;4.05;;;7.20;99.90;;;;;;5124217;27;20157;-64
2021/12/16 03:43:12;;;;;;;10.75;3.90;;;7.20;99.90;;;;;;5146337;27;20049;-64
2021/12/16 03:48:53;;;;;;;9.60;3.80;;;7.00;99.90;;;;;;5128450;27;20047;-64
2021/12/16 03:51:30;;;;;;;11.55;4.38;;;6.90;99.90;;;;;;5148165;27;20047;-63
2021/12/16 03:54:00;;;;;;;12.27;3.95;;;6.90;99.90;;;;;;5123095;27;20036;-63
2021/12/16 03:56:26;;;;;;;7.55;3.72;;;6.90;99.90;;;;;;5129900;27;20046;-63
2021/12/16 03:58:52;;;;;;;8.02;3.55;;;6.90;99.90;;;;;;5111663;27;20043;-63
2021/12/16 04:01:21;;;;;;;14.18;3.63;;;6.90;99.90;;;;;;5135356;27;20077;-64
2021/12/16 04:03:46;;;;;;;6.40;3.45;;;6.90;99.90;;;;;;5146745;27;20378;-64
2021/12/16 04:06:12;;;;;;;14.38;4.38;;;6.80;99.90;;;;;;5126582;27;20047;-64
2021/12/16 04:08:38;;;;;;;8.52;2.90;;;6.80;99.90;;;;;;5111395;28;20482;-64
2021/12/16 04:11:11;;;;;;;8.13;2.92;;;6.70;99.90;;;;;;5134232;27;20621;-64
2021/12/16 04:13:54;;;;;;;7.63;3.33;;;6.70;99.90;;;;;;5136135;27;20039;-64
2021/12/16 04:16:35;;;;;;;15.43;5.18;;;6.70;99.90;;;;;;5118333;28;20050;-64
2021/12/16 04:19:07;;;;;;;11.80;4.45;;;6.80;99.90;;;;;;5128546;27;20039;-64
2021/12/16 04:21:33;;;;;;;11.38;3.55;;;6.80;99.90;;;;;;5140662;27;20099;-63
2021/12/16 04:23:59;;;;;;;15.32;5.32;;;6.70;99.90;;;;;;5111736;28;20088;-63
2021/12/16 04:26:27;;;;;;;13.90;4.80;;;6.70;99.90;;;;;;5125448;27;20429;-63
2021/12/16 04:28:54;;;;;;;10.82;4.80;;;6.70;99.90;;;;;;5122066;28;20099;-64
2021/12/16 04:31:20;;;;;;;13.15;4.70;;;6.70;99.90;;;;;;5129180;28;20126;-64
2021/12/16 04:33:46;;;;;;;9.30;4.13;;;6.80;99.90;;;;;;5124413;28;20532;-64
2021/12/16 04:36:13;;;;;;;8.10;4.00;;;6.80;99.90;;;;;;5128400;27;20090;-63
2021/12/16 04:38:41;;;;;;;11.10;4.63;;;6.70;99.90;;;;;;5130314;27;20035;-63
2021/12/16 04:41:12;;;;;;;14.75;5.13;;;6.70;99.90;;;;;;5140338;27;20039;-64
2021/12/16 04:43:43;;;;;;;14.82;3.70;;;6.70;99.90;;;;;;5140481;27;20051;-64
2021/12/16 04:46:14;;;;;;;18.13;4.97;;;6.70;99.90;;;;;;5124501;27;20394;-64
2021/12/16 04:48:41;;;;;;;11.73;4.80;;;6.80;99.90;;;;;;5142909;27;20039;-64
2021/12/16 04:51:07;;;;;;;9.55;4.07;;;6.80;99.90;;;;;;5127645;28;20405;-63
2021/12/16 04:53:34;;;;;;;17.63;4.40;;;6.70;99.90;;;;;;5118646;27;20039;-63
2021/12/16 04:56:00;;;;;;;10.75;4.05;;;6.70;99.90;;;;;;5104717;27;20440;-63
2021/12/16 04:58:27;;;;;;;7.57;3.80;;;6.70;99.90;;;;;;5102182;27;20046;-64
2021/12/16 05:00:53;;;;;;;10.15;4.25;;;6.60;99.90;;;;;;5115468;27;20105;-64
2021/12/16 05:03:19;;;;;;;10.68;4.55;;;6.60;99.90;;;;;;5139349;27;20131;-63
2021/12/16 05:05:45;;;;;;;9.77;4.85;;;6.60;99.90;;;;;;5128424;28;20043;-64
2021/12/16 05:08:11;;;;;;;12.57;4.15;;;6.60;99.90;;;;;;5119722;28;20147;-64
2021/12/16 05:10:36;;;;;;;8.95;4.28;;;6.50;99.90;;;;;;5133179;27;20043;-64
2021/12/16 05:13:04;;;;;;;9.63;3.88;;;6.60;99.90;;;;;;5136637;27;20070;-63
2021/12/16 05:15:34;;;;;;;14.88;5.65;;;6.60;99.90;;;;;;5095162;27;20532;-63
2021/12/16 05:18:06;;;;;;;9.13;4.95;;;6.50;99.90;;;;;;5152703;27;20074;-63
2021/12/16 05:20:40;;;;;;;9.48;4.10;;;6.60;99.90;;;;;;5132733;27;20050;-63
2021/12/16 05:26:16;;;;;;;7.38;3.35;;;6.50;99.90;;;;;;5136797;27;20039;-63
2021/12/16 05:28:46;;;;;;;20.02;8.57;;;6.50;99.90;;;;;;5150096;27;20046;-63
2021/12/16 05:31:13;;;;;;;15.73;4.40;;;6.50;99.90;;;;;;5145490;27;20454;-64
2021/12/16 05:33:40;;;;;;;10.43;4.60;;;6.40;99.90;;;;;;5138468;27;20176;-63
2021/12/16 05:36:05;;;;;;;7.43;4.60;;;6.40;99.90;;;;;;5143073;27;20051;-64
2021/12/16 05:38:31;;;;;;;9.68;4.70;;;6.50;99.90;;;;;;5132956;27;20117;-64
2021/12/16 05:40:59;;;;;;;11.23;4.32;;;6.50;99.90;;;;;;5131912;27;20394;-63
2021/12/16 05:43:28;;;;;;;8.77;5.40;;;6.50;99.90;;;;;;5129509;27;20517;-64
2021/12/16 05:45:55;;;;;;;10.85;4.30;;;6.50;99.90;;;;;;5143382;27;20049;-63
2021/12/16 05:48:24;;;;;;;8.25;4.00;;;6.50;99.90;;;;;;5105888;27;20092;-64
2021/12/16 05:50:54;;;;;;;7.20;4.10;;;6.50;99.90;;;;;;5145753;27;20050;-64
2021/12/16 05:53:20;;;;;;;7.38;3.30;;;6.50;99.90;;;;;;5129017;27;20042;-63
2021/12/16 05:55:46;;;;;;;9.15;3.95;;;6.50;99.90;;;;;;5116290;27;20039;-64
2021/12/16 05:58:18;;;;;;;7.38;4.13;;;6.50;99.90;;;;;;5113878;27;20107;-63
2021/12/16 06:00:45;;;;;;;9.55;4.32;;;6.50;99.90;;;;;;5112150;27;20071;-63
2021/12/16 06:03:11;;;;;;;18.05;4.95;;;6.50;99.90;;;;;;5136807;27;20125;-64
2021/12/16 06:05:37;;;;;;;9.27;4.68;;;6.50;99.90;;;;;;5134535;27;20059;-64
2021/12/16 06:08:04;;;;;;;14.50;5.45;;;6.50;99.90;;;;;;5137591;27;20049;-64
2021/12/16 06:12:55;;;;;;;8.63;4.47;;;6.50;99.90;;;;;;5131724;27;20043;-64
2021/12/16 06:15:38;;;;;;;11.43;5.43;;;6.50;99.90;;;;;;5144662;27;20054;-64
2021/12/16 06:26:37;;;;;;;;;;;6.50;99.90;;;;;;5136478;27;20054;-64
2021/12/16 06:29:03;;;;;;;9.35;5.30;;;6.40;99.90;;;;;;5135752;27;19926;-64
2021/12/16 06:31:30;;;;;;;7.95;4.40;;;6.40;99.90;;;;;;5133886;27;20047;-63
2021/12/16 06:33:56;;;;;;;9.02;4.45;;;6.40;99.90;;;;;;5123599;27;20036;-64
2021/12/16 06:36:22;;;;;;;10.77;4.22;;;6.40;99.90;;;;;;5145833;27;20053;-64
2021/12/16 06:38:47;;;;;;;10.23;5.18;;;6.30;99.90;;;;;;5130551;27;20043;-64
2021/12/16 06:41:14;;;;;;;12.55;5.22;;;6.40;99.90;;;;;;5108886;27;20129;-64
2021/12/16 06:43:41;;;;;;;17.77;5.43;;;6.40;99.90;;;;;;5136613;27;20035;-64
2021/12/16 06:46:11;;;;;;;14.55;5.00;;;6.40;99.90;;;;;;5133441;27;20049;-64
2021/12/16 06:48:40;;;;;;;10.48;5.05;;;6.40;99.90;;;;;;5122324;27;20510;-64
2021/12/16 06:51:12;;;;;;;11.85;6.30;;;6.40;99.90;;;;;;5130703;27;20158;-64
2021/12/16 06:53:50;;;;;;;19.73;6.70;;;6.40;99.90;;;;;;5127795;27;20553;-64
2021/12/16 06:56:28;;;;;;;26.42;5.95;;;6.40;99.90;;;;;;5135345;27;20406;-64
2021/12/16 06:59:08;;;;;;;40.85;6.00;;;6.50;99.90;;;;;;5130564;27;20043;-64
2021/12/16 07:01:40;;;;;;;13.05;5.15;;;6.50;99.90;;;;;;5122323;27;20042;-63
2021/12/16 07:04:10;;;;;;;25.52;6.18;;;6.50;99.90;;;;;;5129391;27;20066;-63
2021/12/16 07:06:38;;;;;;;22.75;6.22;;;6.40;99.90;;;;;;5135195;27;20434;-64
2021/12/16 07:09:13;;;;;;;16.98;5.88;;;6.40;99.90;;;;;;5141587;27;20086;-64
2021/12/16 07:11:42;;;;;;;19.08;5.05;;;6.40;99.90;;;;;;5139538;27;20095;-63
2021/12/16 07:14:15;;;;;;;38.50;6.53;;;6.40;99.90;;;;;;5102735;27;20047;-63
2021/12/16 07:16:46;;;;;;;83.53;8.20;;;6.30;99.90;;;;;;5126078;27;20394;-63
2021/12/16 07:19:11;;;;;;;26.23;5.72;;;6.20;99.90;;;;;;5134909;27;20126;-63
2021/12/16 07:21:38;;;;;;;23.77;5.78;;;6.20;99.90;;;;;;5143600;27;20143;-63
2021/12/16 07:24:06;;;;;;;26.27;4.78;;;6.20;99.90;;;;;;5118793;27;20092;-64
2021/12/16 07:26:32;;;;;;;12.75;5.47;;;6.20;99.90;;;;;;5128424;27;20662;-64
2021/12/16 07:28:57;;;;;;;66.03;7.07;;;6.30;99.90;;;;;;5110018;28;20123;-64
2021/12/16 07:31:23;;;;;;;48.88;6.35;;;6.20;99.90;;;;;;5114735;27;20058;-64
2021/12/16 07:33:48;;;;;;;55.47;6.53;;;6.20;99.90;;;;;;5145388;27;20432;-64
2021/12/16 07:36:18;;;;;;;34.38;5.47;;;6.20;99.90;;;;;;5134663;27;20051;-64
2021/12/16 07:38:47;;;;;;;138.43;8.95;;;6.30;99.90;;;;;;5129865;27;20043;-64
2021/12/16 07:41:16;;;;;;;60.38;6.75;;;6.30;99.90;;;;;;5135845;27;20043;-64
2021/12/16 07:43:56;;;;;;;46.72;7.10;;;6.20;99.90;;;;;;5140273;27;20047;-64
2021/12/16 07:46:22;;;;;;;47.88;5.43;;;6.20;99.90;;;;;;5111951;27;20063;-64
2021/12/16 07:48:48;;;;;;;97.47;5.68;;;6.20;99.90;;;;;;5124864;27;20039;-64
2021/12/16 07:51:14;;;;;;;77.95;6.50;;;6.20;99.90;;;;;;5135341;27;20555;-63
2021/12/16 07:53:39;;;;;;;60.72;5.47;;;6.10;99.90;;;;;;5130124;27;20039;-64
2021/12/16 07:56:06;;;;;;;93.10;6.60;;;6.10;99.90;;;;;;5110827;27;20055;-64
2021/12/16 07:58:32;;;;;;;84.45;6.63;;;6.10;99.90;;;;;;5136069;27;20178;-64
2021/12/16 08:00:58;;;;;;;53.50;5.97;;;6.20;99.90;;;;;;5126510;27;20158;-63
2021/12/16 08:03:26;;;;;;;145.80;7.40;;;6.20;99.90;;;;;;5130259;27;20070;-64
2021/12/16 08:05:55;;;;;;;105.97;6.80;;;6.20;99.90;;;;;;5121301;27;20124;-64
2021/12/16 08:08:23;;;;;;;76.65;5.47;;;6.20;99.90;;;;;;5125122;27;20035;-64
2021/12/16 08:10:51;;;;;;;71.13;5.00;;;6.20;99.90;;;;;;5121655;27;20051;-64
2021/12/16 08:13:17;;;;;;;45.38;5.15;;;6.20;99.90;;;;;;5124968;27;20043;-64
2021/12/16 08:15:43;;;;;;;88.78;5.38;;;6.20;99.90;;;;;;5120706;27;20039;-64
2021/12/16 08:18:09;;;;;;;39.58;4.70;;;6.20;99.90;;;;;;5121507;27;20039;-64
2021/12/16 08:20:35;;;;;;;29.40;4.55;;;6.20;99.90;;;;;;5124640;27;20030;-64
2021/12/16 08:23:01;;;;;;;24.17;4.30;;;6.20;99.90;;;;;;5120432;28;20043;-64
2021/12/16 08:25:29;;;;;;;33.15;5.40;;;6.20;99.90;;;;;;5122920;27;20043;-64
2021/12/16 08:27:57;;;;;;;49.75;4.88;;;6.30;99.90;;;;;;5123887;28;20707;-64
2021/12/16 08:30:27;;;;;;;86.63;6.22;;;6.30;99.90;;;;;;5119645;27;20142;-64
2021/12/16 08:32:53;;;;;;;73.05;6.47;;;6.30;99.90;;;;;;5127853;28;20031;-64
2021/12/16 08:35:19;;;;;;;73.93;6.57;;;6.30;99.90;;;;;;5113393;27;20053;-64
2021/12/16 08:37:45;;;;;;;71.63;5.82;;;6.30;99.90;;;;;;5129139;27;20071;-64
2021/12/16 08:40:18;;;;;;;54.97;5.68;;;6.30;99.90;;;;;;5129703;28;20054;-63
2021/12/16 08:42:44;;;;;;;23.08;5.15;;;6.30;99.90;;;;;;5129731;28;20039;-64
2021/12/16 08:45:13;;;;;;;81.72;6.82;;;6.40;99.90;;;;;;5145352;27;20039;-63
2021/12/16 08:47:39;;;;;;;41.53;6.05;;;6.40;99.90;;;;;;5131948;27;20786;-64
2021/12/16 08:50:08;;;;;;;69.40;7.30;;;6.40;99.90;;;;;;5141058;27;20042;-64
2021/12/16 08:52:34;;;;;;;69.18;6.38;;;6.40;99.90;;;;;;5113556;27;20099;-64
2021/12/16 08:55:00;;;;;;;63.17;6.95;;;6.40;99.90;;;;;;5140597;27;20087;-63
2021/12/16 08:57:27;;;;;;;82.47;8.02;;;6.40;99.90;;;;;;5129290;27;22314;-63
2021/12/16 08:59:53;;;;;;;103.35;7.88;;;6.40;99.90;;;;;;5110814;27;20039;-64
2021/12/16 09:02:22;;;;;;;56.40;6.55;;;6.50;99.90;;;;;;5133443;27;20069;-64
2021/12/16 09:04:48;;;;;;;42.63;5.93;;;6.50;99.90;;;;;;5134374;27;20083;-64
2021/12/16 09:07:15;;;;;;;40.17;5.60;;;6.60;99.90;;;;;;5130926;27;20043;-63
2021/12/16 09:09:43;;;;;;;67.80;5.45;;;6.60;99.90;;;;;;5129990;27;20051;-63
2021/12/16 09:12:37;;;;;;;53.88;6.15;;;6.60;99.90;;;;;;5120612;27;20042;-63
2021/12/16 09:15:12;;;;;;;60.67;6.07;;;6.60;99.90;;;;;;5133164;27;20486;-64
2021/12/16 09:17:38;;;;;;;61.17;6.13;;;6.70;99.90;;;;;;5144996;27;20067;-64
2021/12/16 09:20:05;;;;;;;49.70;6.75;;;6.70;99.90;;;;;;5131938;27;20748;-63
2021/12/16 09:22:31;;;;;;;127.50;8.30;;;6.70;99.90;;;;;;5135815;27;20039;-63
2021/12/16 09:24:57;;;;;;;59.97;6.70;;;6.70;99.90;;;;;;5132364;27;20122;-63
2021/12/16 09:27:23;;;;;;;68.70;6.65;;;6.70;99.90;;;;;;5130332;27;20061;-63
2021/12/16 09:29:50;;;;;;;105.57;7.25;;;6.80;99.90;;;;;;5138513;27;20043;-64
2021/12/16 09:32:16;;;;;;;96.93;8.10;;;6.80;99.90;;;;;;5131816;27;20062;-63
2021/12/16 09:34:44;;;;;;;46.35;6.70;;;6.80;99.90;;;;;;5113225;27;20043;-63
2021/12/16 09:37:10;;;;;;;79.15;7.93;;;6.80;99.90;;;;;;5135235;27;20035;-63
2021/12/16 09:39:37;;;;;;;90.57;8.57;;;6.80;99.90;;;;;;5134758;27;20081;-63
2021/12/16 09:42:05;;;;;;;100.15;8.57;;;6.90;99.90;;;;;;5131128;27;20043;-63
2021/12/16 09:44:31;;;;;;;65.43;8.10;;;6.90;99.90;;;;;;5129840;27;20042;-64
2021/12/16 09:46:59;;;;;;;59.88;6.57;;;6.90;99.90;;;;;;5150871;27;20046;-64
2021/12/16 09:49:26;;;;;;;87.03;8.02;;;6.90;99.90;;;;;;5138863;27;20043;-64
2021/12/16 09:51:54;;;;;;;34.40;7.05;;;7.00;99.90;;;;;;5130327;27;20042;-64
2021/12/16 09:54:24;;;;;;;78.50;8.45;;;7.00;99.90;;;;;;5113581;27;20087;-64
2021/12/16 09:56:52;;;;;;;44.85;7.80;;;7.10;99.90;;;;;;5127884;27;20051;-64
2021/12/16 09:59:20;;;;;;;46.08;8.80;;;7.10;99.90;;;;;;5100782;27;20047;-64
2021/12/16 10:01:50;;;;;;;85.45;9.25;;;7.20;99.90;;;;;;5141379;27;20046;-64
2021/12/16 10:04:20;;;;;;;32.05;9.35;;;7.20;99.90;;;;;;5109040;27;20125;-65
2021/12/16 10:06:49;;;;;;;39.95;9.10;;;7.30;99.90;;;;;;5132516;27;20058;-64
2021/12/16 10:09:14;;;;;;;57.03;10.77;;;7.40;99.90;;;;;;5140047;27;20493;-64
2021/12/16 10:11:43;;;;;;;19.75;9.57;;;7.50;99.90;;;;;;5137670;27;20045;-64
2021/12/16 10:19:26;;;;;;;63.40;12.90;;;7.60;99.90;;;;;;5124214;27;20047;-64
2021/12/16 10:21:53;;;;;;;51.15;11.50;;;7.70;99.90;;;;;;5137770;27;20315;-64
2021/12/16 10:24:28;;;;;;;31.10;10.55;;;7.70;99.90;;;;;;5140228;27;20043;-64
2021/12/16 10:27:15;;;;;;;34.03;10.32;;;7.80;99.90;;;;;;5131857;27;20406;-64
2021/12/16 10:29:45;;;;;;;19.85;10.43;;;7.80;99.90;;;;;;5139505;27;20038;-64
2021/12/16 10:32:45;;;;;;;19.75;11.57;;;7.90;99.90;;;;;;5142445;27;20047;-64
2021/12/16 10:35:32;;;;;;;17.20;11.02;;;8.00;99.90;;;;;;5097876;27;20051;-64
2021/12/16 10:38:05;;;;;;;18.90;11.60;;;8.10;99.90;;;;;;5121376;27;20677;-63
2021/12/16 10:40:40;;;;;;;24.92;11.88;;;8.10;99.90;;;;;;5122581;27;20047;-64
2021/12/16 10:43:34;;;;;;;20.65;12.80;;;8.20;99.90;;;;;;5131973;27;20091;-64
2021/12/16 10:46:10;;;;;;;24.55;12.25;;;8.30;99.90;;;;;;5116717;27;20055;-64
2021/12/16 10:48:41;;;;;;;22.75;12.23;;;8.30;99.90;;;;;;5123261;27;20486;-64
2021/12/16 10:51:12;;;;;;;32.67;13.45;;;8.40;99.90;;;;;;5116160;27;20047;-64
2021/12/16 10:53:59;;;;;;;18.58;10.98;;;8.40;99.90;;;;;;5139833;27;20646;-64
2021/12/16 10:56:27;;;;;;;23.42;14.02;;;8.50;99.90;;;;;;5131658;27;20404;-64
2021/12/16 10:58:57;;;;;;;21.50;11.82;;;8.60;99.90;;;;;;5144068;27;20099;-65
2021/12/16 11:01:43;;;;;;;26.08;12.43;;;8.60;99.90;;;;;;5122361;27;20042;-64
2021/12/16 11:04:23;;;;;;;26.20;12.75;;;8.70;99.90;;;;;;5136552;27;20054;-64
2021/12/16 11:07:09;;;;;;;27.73;14.98;;;8.80;99.90;;;;;;5137334;27;20042;-64
2021/12/16 11:09:37;;;;;;;29.63;15.70;;;8.80;99.90;;;;;;5112489;27;20046;-64
2021/12/16 11:12:22;;;;;;;27.05;15.45;;;8.80;99.90;;;;;;5134632;27;20046;-64
2021/12/16 11:15:11;;;;;;;35.10;16.17;;;8.90;99.90;;;;;;5130305;27;20042;-64
2021/12/16 11:17:51;;;;;;;44.17;16.52;;;8.90;99.90;;;;;;5141375;27;20035;-64
2021/12/16 11:20:22;;;;;;;30.33;15.88;;;8.90;99.90;;;;;;5123343;27;20047;-64
2021/12/16 11:22:53;;;;;;;32.65;16.85;;;9.00;99.90;;;;;;5135308;27;20035;-64
2021/12/16 11:25:23;;;;;;;39.53;16.45;;;9.00;99.90;;;;;;5105316;27;20050;-64
2021/12/16 11:27:55;;;;;;;33.58;16.70;;;9.10;99.90;;;;;;5141558;27;20053;-64
2021/12/16 11:30:32;;;;;;;38.15;15.95;;;9.10;99.90;;;;;;5136617;27;20066;-64
2021/12/16 11:33:21;;;;;;;53.83;19.48;;;9.20;99.90;;;;;;5111867;27;20809;-64
2021/12/16 11:35:52;;;;;;;44.22;19.88;;;9.20;99.90;;;;;;5147567;27;20042;-64
2021/12/16 11:38:23;;;;;;;47.60;17.27;;;9.20;99.90;;;;;;5137945;27;20051;-64
2021/12/16 11:41:11;;;;;;;41.15;16.90;;;9.30;99.90;;;;;;5132552;27;20538;-64
2021/12/16 11:43:40;;;;;;;57.95;20.33;;;9.30;99.90;;;;;;5110254;27;20052;-64
2021/12/16 11:46:12;;;;;;;54.13;20.55;;;9.40;99.90;;;;;;5131745;27;20126;-64
2021/12/16 11:48:40;;;;;;;51.00;19.58;;;9.30;99.90;;;;;;5131830;27;20039;-64
2021/12/16 11:51:10;;;;;;;56.33;21.25;;;9.40;99.90;;;;;;5133640;27;20490;-64
2021/12/16 11:53:39;;;;;;;82.25;24.60;;;9.40;99.90;;;;;;5122405;27;20084;-64
2021/12/16 11:56:06;;;;;;;48.88;19.65;;;9.40;99.90;;;;;;5128951;27;20050;-64
2021/12/16 11:58:32;;;;;;;47.00;19.60;;;9.40;99.90;;;;;;5130437;27;20058;-63
2021/12/16 12:00:58;;;;;;;43.97;20.65;;;9.40;99.90;;;;;;5128226;27;20047;-64
2021/12/16 12:03:33;;;;;;;59.10;21.13;;;9.50;99.90;;;;;;5129803;27;20039;-63
2021/12/16 12:05:59;;;;;;;53.83;20.42;;;9.40;99.90;;;;;;5127371;27;20212;-64
2021/12/16 12:08:28;;;;;;;55.17;20.20;;;9.50;99.90;;;;;;5133397;27;20130;-64
2021/12/16 12:11:02;;;;;;;39.75;19.25;;;9.50;99.90;;;;;;5129527;27;20130;-63
2021/12/16 12:13:44;;;;;;;39.47;18.80;;;9.50;99.90;;;;;;5130230;27;20126;-63
2021/12/16 12:16:35;;;;;;;38.58;18.90;;;9.50;99.90;;;;;;5146420;27;20478;-63
2021/12/16 12:19:24;;;;;;;41.88;19.25;;;9.50;99.90;;;;;;5134432;27;20095;-64
2021/12/16 12:22:00;;;;;;;46.35;19.00;;;9.50;99.90;;;;;;5102020;28;20043;-64
2021/12/16 12:24:32;;;;;;;43.92;18.80;;;9.50;99.90;;;;;;5119936;27;20043;-64
2021/12/16 12:27:23;;;;;;;57.25;20.35;;;9.50;99.90;;;;;;5140282;27;20157;-63
2021/12/16 12:30:00;;;;;;;65.68;21.65;;;9.50;99.90;;;;;;5123907;27;20045;-64
2021/12/16 12:32:38;;;;;;;54.95;22.13;;;9.50;99.90;;;;;;5148978;27;20150;-64
2021/12/16 12:35:07;;;;;;;53.30;21.08;;;9.50;99.90;;;;;;5124376;27;20071;-64
2021/12/16 12:37:36;;;;;;;61.67;22.67;;;9.50;99.90;;;;;;5129532;27;20126;-64
2021/12/16 12:40:11;;;;;;;59.25;22.25;;;9.50;99.90;;;;;;5127147;27;20393;-64
2021/12/16 12:42:37;;;;;;;54.63;21.77;;;9.50;99.90;;;;;;5120395;27;20043;-63
2021/12/16 12:45:08;;;;;;;53.78;22.52;;;9.50;99.90;;;;;;5137198;27;20138;-63
2021/12/16 12:47:36;;;;;;;49.42;24.02;;;9.50;99.90;;;;;;5146584;27;20043;-64
2021/12/16 12:50:19;;;;;;;51.88;22.05;;;9.60;99.90;;;;;;5113540;27;20051;-63
2021/12/16 12:52:50;;;;;;;53.85;22.50;;;9.50;99.90;;;;;;5125655;27;20123;-64
2021/12/16 12:55:31;;;;;;;51.85;23.75;;;9.60;99.90;;;;;;5139814;27;20046;-64
2021/12/16 12:58:05;;;;;;;64.90;23.98;;;9.60;99.90;;;;;;5133227;27;20068;-63
2021/12/16 13:00:32;;;;;;;47.00;22.25;;;9.60;99.90;;;;;;5131176;27;20051;-64
2021/12/16 13:03:24;;;;;;;55.85;23.67;;;9.60;99.90;;;;;;5136532;27;20082;-64
2021/12/16 13:05:55;;;;;;;44.58;21.88;;;9.60;99.90;;;;;;5122144;27;20043;-64
2021/12/16 13:08:28;;;;;;;44.88;22.70;;;9.60;99.90;;;;;;5122614;27;20128;-64
2021/12/16 13:11:01;;;;;;;61.28;23.42;;;9.60;99.90;;;;;;5126418;27;20035;-64
2021/12/16 13:16:24;;;;;;;64.22;25.80;;;9.60;99.90;;;;;;5132401;27;20014;-62
2021/12/16 13:25:11;;;;;;;65.97;24.55;;;9.60;99.90;;;;;;5109863;27;20505;-64
2021/12/16 13:27:44;;;;;;;70.57;25.23;;;9.60;99.90;;;;;;5136411;27;20039;-63
2021/12/16 13:33:13;;;;;;;56.60;25.73;;;9.50;99.90;;;;;;5133140;27;20043;-63
2021/12/16 13:35:47;;;;;;;71.68;25.88;;;9.50;99.90;;;;;;5120123;27;20051;-62
2021/12/16 13:38:13;;;;;;;62.20;24.33;;;9.50;99.90;;;;;;5132613;27;20035;-62
2021/12/16 13:40:42;;;;;;;62.45;26.33;;;9.50;99.90;;;;;;5140028;27;20038;-63
2021/12/16 13:43:18;;;;;;;100.10;29.27;;;9.50;99.90;;;;;;5145948;27;20122;-63
2021/12/16 13:45:58;;;;;;;54.03;25.38;;;9.50;99.90;;;;;;5123403;27;20047;-63
2021/12/16 14:02:06;;;;;;;65.18;26.30;;;9.70;99.90;;;;;;5112437;27;20051;-63
2021/12/16 14:04:40;;;;;;;67.45;26.73;;;9.60;99.90;;;;;;5122039;27;20089;-63
2021/12/16 14:07:40;;;;;;;55.47;25.17;;;9.60;99.90;;;;;;5135939;27;20051;-63
2021/12/16 14:10:19;;;;;;;64.32;26.00;;;9.70;99.90;;;;;;5120702;27;20100;-63
2021/12/16 14:16:02;;;;;;;57.17;24.67;;;9.70;99.90;;;;;;5126698;27;20035;-63
2021/12/16 14:41:14;;;;;;;56.10;24.65;;;9.70;99.90;;;;;;5129122;27;20490;-62
2021/12/16 14:46:35;;;;;;;55.85;23.73;;;9.80;99.90;;;;;;5106471;27;20050;-63
2021/12/16 14:49:00;;;;;;;70.20;27.42;;;9.80;99.90;;;;;;5112802;27;20496;-63
2021/12/16 14:51:26;;;;;;;58.75;27.25;;;9.70;99.90;;;;;;5144338;27;20039;-62
2021/12/16 14:53:54;;;;;;;53.70;26.25;;;9.70;99.90;;;;;;5127717;27;20437;-62
2021/12/16 14:56:31;;;;;;;68.20;28.10;;;9.70;99.90;;;;;;5116104;27;20035;-63
2021/12/16 14:59:00;;;;;;;59.42;26.30;;;9.80;99.90;;;;;;5131175;27;20047;-63
2021/12/16 15:01:30;;;;;;;54.42;24.77;;;9.80;99.90;;;;;;5112984;27;20089;-63
2021/12/16 15:03:57;;;;;;;54.17;24.48;;;9.70;99.90;;;;;;5133082;27;20371;-63
2021/12/16 15:06:41;;;;;;;60.13;26.73;;;9.70;99.90;;;;;;5133062;27;20061;-63
2021/12/16 15:09:17;;;;;;;53.60;24.35;;;9.80;99.90;;;;;;5133465;27;20043;-63
2021/12/16 15:17:08;;;;;;;50.00;25.35;;;9.70;99.90;;;;;;5130276;27;20411;-63
2021/12/16 15:44:22;;;;;;;58.55;24.05;;;9.60;99.90;;;;;;5115183;27;20146;-63
2021/12/16 15:46:50;;;;;;;66.32;23.60;;;9.70;99.90;;;;;;5144097;27;20038;-63
2021/12/16 15:49:15;;;;;;;56.05;23.55;;;9.60;99.90;;;;;;5134496;27;20055;-63
2021/12/16 15:51:41;;;;;;;65.18;24.42;;;9.60;99.90;;;;;;5134728;27;20039;-63
2021/12/16 15:54:10;;;;;;;66.63;22.98;;;9.60;99.90;;;;;;5135650;27;20043;-63
2021/12/16 15:56:38;;;;;;;48.80;22.58;;;9.60;99.90;;;;;;5138157;27;20131;-63
2021/12/16 15:59:13;;;;;;;66.05;19.92;;;9.50;99.90;;;;;;5128472;27;20563;-63
2021/12/16 16:01:41;;;;;;;53.08;20.20;;;9.50;99.90;;;;;;5141889;27;20066;-63
2021/12/16 16:04:14;;;;;;;56.30;21.15;;;9.50;99.90;;;;;;5130173;27;20120;-63
2021/12/16 16:06:42;;;;;;;40.97;18.63;;;9.40;99.90;;;;;;5110088;27;20126;-63
2021/12/16 16:09:10;;;;;;;88.93;18.45;;;9.40;99.90;;;;;;5140275;27;20042;-63
2021/12/16 16:11:46;;;;;;;68.47;20.02;;;9.40;99.90;;;;;;5111537;27;20043;-64
2021/12/16 16:14:13;;;;;;;75.15;19.55;;;9.40;99.90;;;;;;5116470;27;20054;-63
2021/12/16 16:16:47;;;;;;;84.60;21.08;;;9.40;99.90;;;;;;5116164;27;20127;-64
2021/12/16 16:19:35;;;;;;;74.93;19.90;;;9.40;99.90;;;;;;5119374;28;20117;-64
2021/12/16 16:22:04;;;;;;;55.25;18.52;;;9.40;99.90;;;;;;5127193;27;20055;-63
2021/12/16 16:24:33;;;;;;;111.90;20.98;;;9.40;99.90;;;;;;5127933;28;20476;-64
2021/12/16 16:27:04;;;;;;;57.67;17.70;;;9.40;99.90;;;;;;5117961;28;20107;-64
2021/12/16 16:29:32;;;;;;;66.43;14.65;;;9.40;99.90;;;;;;5130428;27;20049;-63
2021/12/16 16:31:59;;;;;;;86.25;15.60;;;9.30;99.90;;;;;;5136066;27;20047;-63
2021/12/16 16:34:29;;;;;;;98.82;13.55;;;9.30;99.90;;;;;;5130001;28;20127;-64
2021/12/16 16:37:04;;;;;;;96.63;13.18;;;9.30;99.90;;;;;;5133338;27;20054;-63
2021/12/16 16:39:33;;;;;;;78.07;11.52;;;9.20;99.90;;;;;;5101216;28;20058;-63
2021/12/16 16:42:17;;;;;;;109.32;13.10;;;9.20;99.90;;;;;;5104397;27;20057;-63
2021/12/16 16:44:55;;;;;;;92.03;11.73;;;9.20;99.90;;;;;;5132126;27;20042;-63
2021/12/16 16:47:32;;;;;;;59.05;13.25;;;9.20;99.90;;;;;;5140246;27;20710;-63
2021/12/16 16:49:59;;;;;;;45.20;9.65;;;9.20;99.90;;;;;;5119573;28;20094;-64